Greenwich, New Jersey
Current Conditions -  °F | °C
As of 8:54 AM on Saturday 20 Dec 2014 (Local Time) from KMIV Reporting Station
Overcast Overcast  
Wind Chill: 32°   Ceiling: 3000
Heat Index: 32°   Visibility: 10mi
Dew Point: 23°   Wind: 3mph
Humidity: 69%   Direction: 60°ENE
Pressure: 30.3"   Gusts: NA
Location:  39.39°N, 75.34°W
Report Text: KMIV 201354Z AUTO 06003KT 10SM OVC030 00/M05 A3030 RMK AO2 SLP260 T00001050
Loading
Personal Weather Stations






























Interactive Weather Map New forecast layout! Learn more

10-Day Weather Forecast

Advertisements
Track Severe Weather on mobile